Terminal Aerodrome Forecast
Issued by NWS

Home | Current Version | Previous Version | Text Only | Print | Product List | Glossary On
Versions: 1 2 3 4 5 6 7 8 9 10 11 12 13 14 15 16 17 18 19 20 21 22 23 24 25 26 27 28 29 30
383
FTUS44 KLUB 221746
TAFCDS
TAF
KCDS 221746Z 2218/2318 16010KT 5SM BR BKN006 OVC015
     FM230300 14011KT 3SM BR BKN004 OVC010
     FM231200 16015KT 3SM TSRA BR BKN003 OVC010CB=

USA.gov is the U.S. government's official web portal to all federal, state and local government web resources and services.